Time;durP1;ratioP1;P1;durP2;ratioP2;P2;SDS_P1;SDS_P2;PMS_P1;PMS_P2;Temp;Humidity;BMP_temperature;BMP_pressure;BME280_temperature;BME280_humidity;BME280_pressure;Samples;Min_cycle;Max_cycle;Signal;HPM_P1;HPM_P2
2022/10/23 00:02:13;;;;;;;;;;;15.90;72.60;;;;;;5071040;28;20019;-68
2022/10/23 00:04:39;;;;;;;;;;;15.90;72.60;;;;;;5071203;28;19920;-68
2022/10/23 00:07:04;;;;;;;;;;;15.90;73.30;;;;;;5071385;28;19920;-70
2022/10/23 00:09:30;;;;;;;;;;;15.90;72.60;;;;;;5071177;28;20433;-71
2022/10/23 00:11:55;;;;;;;;;;;15.90;72.60;;;;;;5071099;28;19928;-71
2022/10/23 00:14:22;;;;;;;;;;;15.90;72.60;;;;;;5072313;28;19925;-68
2022/10/23 00:16:48;;;;;;;;;;;15.90;72.60;;;;;;5071464;28;20276;-68
2022/10/23 00:19:14;;;;;;;;;;;15.80;72.50;;;;;;5070969;28;19932;-67
2022/10/23 00:21:40;;;;;;;;;;;15.90;72.60;;;;;;5070779;28;19925;-67
2022/10/23 00:24:07;;;;;;;;;;;15.80;72.50;;;;;;5070904;28;19921;-68
2022/10/23 00:26:32;;;;;;;;;;;15.90;72.60;;;;;;5071011;28;19935;-68
2022/10/23 00:28:58;;;;;;;;;;;15.80;72.50;;;;;;5070873;28;19921;-70
2022/10/23 00:31:24;;;;;;;;;;;15.80;72.50;;;;;;5071191;28;19927;-70
2022/10/23 00:33:50;;;;;;;;;;;15.80;72.60;;;;;;5071100;28;19925;-68
2022/10/23 00:36:17;;;;;;;;;;;15.80;72.60;;;;;;5070876;28;20295;-68
2022/10/23 00:38:42;;;;;;;;;;;15.90;72.70;;;;;;5072191;28;19921;-68
2022/10/23 00:41:09;;;;;;;;;;;15.80;72.60;;;;;;5071013;28;19978;-68
2022/10/23 00:43:52;;;;;;;;;;;15.90;72.70;;;;;;5072016;28;20354;-68
2022/10/23 00:46:18;;;;;;;;;;;15.80;72.60;;;;;;5070738;28;20000;-71
2022/10/23 00:48:44;;;;;;;;;;;15.80;72.70;;;;;;5072010;28;19968;-68
2022/10/23 00:51:09;;;;;;;;;;;15.80;73.30;;;;;;5070869;28;19921;-68
2022/10/23 00:53:34;;;;;;;;;;;15.80;72.60;;;;;;5070923;28;19928;-70
2022/10/23 00:56:02;;;;;;;;;;;15.80;72.60;;;;;;5071036;28;19944;-70
2022/10/23 00:58:27;;;;;;;;;;;15.80;72.60;;;;;;5070900;28;20015;-68
2022/10/23 01:00:54;;;;;;;;;;;15.80;72.50;;;;;;5070480;28;20003;-70
2022/10/23 01:03:22;;;;;;;;;;;15.80;72.50;;;;;;5070600;28;19929;-68
2022/10/23 01:05:55;;;;;;;;;;;15.80;72.60;;;;;;5070631;28;19920;-68
2022/10/23 01:08:27;;;;;;;;;;;15.80;72.60;;;;;;5071832;28;20524;-68
2022/10/23 01:10:57;;;;;;;;;;;15.80;72.60;;;;;;5070367;28;19970;-70
2022/10/23 01:13:29;;;;;;;;;;;15.80;72.60;;;;;;5071736;28;19977;-70
2022/10/23 01:18:38;;;;;;;;;;;15.80;72.60;;;;;;5105572;27;19955;-70
2022/10/23 01:21:09;;;;;;;;;;;15.80;72.50;;;;;;5105876;28;19928;-68
2022/10/23 01:31:38;;;;;;;;;;;15.80;72.50;;;;;;5163973;27;19912;-70
2022/10/23 01:34:07;;;;;;;;;;;15.80;72.60;;;;;;5129142;28;19919;-68
2022/10/23 01:36:34;;;;;;;;;;;15.80;72.60;;;;;;5129616;28;20002;-68
2022/10/23 01:39:04;;;;;;;;;;;15.80;72.50;;;;;;5129353;28;20375;-68
2022/10/23 01:41:34;;;;;;;;;;;15.80;72.50;;;;;;5164410;27;20139;-71
2022/10/23 01:44:05;;;;;;;;;;;15.80;73.30;;;;;;5129810;28;19919;-68
2022/10/23 01:46:34;;;;;;;;;;;15.80;72.60;;;;;;5129483;28;20007;-68
2022/10/23 01:49:01;;;;;;;;;;;15.80;72.50;;;;;;5129259;28;19938;-68
2022/10/23 01:51:27;;;;;;;;;;;15.80;72.50;;;;;;5128968;28;19928;-68
2022/10/23 01:53:55;;;;;;;;;;;15.80;73.30;;;;;;5129101;28;20386;-68
2022/10/23 01:56:24;;;;;;;;;;;15.80;72.50;;;;;;5129289;28;19927;-70
2022/10/23 01:58:51;;;;;;;;;;;15.80;72.50;;;;;;5163904;27;20302;-68
2022/10/23 02:01:18;;;;;;;;;;;15.80;72.50;;;;;;5130283;27;20290;-68
2022/10/23 02:03:45;;;;;;;;;;;15.70;72.50;;;;;;5130158;27;19920;-68
2022/10/23 02:06:10;;;;;;;;;;;15.80;72.60;;;;;;5130071;27;19931;-68
2022/10/23 02:08:36;;;;;;;;;;;15.70;72.50;;;;;;5129195;28;19919;-68
2022/10/23 02:14:02;;;;;;;;;;;15.70;72.50;;;;;;5122836;27;20280;-68
2022/10/23 02:16:47;;;;;;;;;;;15.70;72.40;;;;;;5088265;28;20008;-68
2022/10/23 02:24:37;;;;;;;;;;;15.70;72.40;;;;;;5122997;27;19919;-68
2022/10/23 02:27:06;;;;;;;;;;;15.70;72.40;;;;;;5088825;28;19920;-68
2022/10/23 02:29:33;;;;;;;;;;;15.70;72.40;;;;;;5122892;28;19927;-68
2022/10/23 02:32:00;;;;;;;;;;;15.80;72.50;;;;;;5088809;28;20277;-68
2022/10/23 02:34:26;;;;;;;;;;;15.70;72.30;;;;;;5088494;28;19921;-68
2022/10/23 02:36:51;;;;;;;;;;;15.70;72.30;;;;;;5088846;28;20023;-68
2022/10/23 02:39:17;;;;;;;;;;;15.70;72.40;;;;;;5088663;28;20288;-68
2022/10/23 02:47:20;;;;;;;;;;;15.70;72.40;;;;;;5122872;27;19919;-68
2022/10/23 02:52:51;;;;;;;;;;;15.70;72.30;;;;;;5166354;27;791868;-68
2022/10/23 02:55:36;;;;;;;;;;;15.70;72.30;;;;;;5195541;27;20270;-68
2022/10/23 03:00:43;;;;;;;;;;;15.70;72.40;;;;;;5165734;27;812597;-69
2022/10/23 03:03:11;;;;;;;;;;;15.60;72.30;;;;;;5195361;27;19919;-68
2022/10/23 03:05:38;;;;;;;;;;;15.60;72.30;;;;;;5195715;27;19941;-68
2022/10/23 03:08:06;;;;;;;;;;;15.70;72.30;;;;;;5195515;27;20009;-68
2022/10/23 03:10:32;;;;;;;;;;;15.70;72.20;;;;;;5195700;27;20013;-68
2022/10/23 03:12:57;;;;;;;;;;;15.70;72.30;;;;;;5195346;27;20349;-68
2022/10/23 03:15:23;;;;;;;;;;;15.60;72.20;;;;;;5195445;27;19925;-69
2022/10/23 03:17:48;;;;;;;;;;;15.70;72.30;;;;;;5195511;27;19977;-68
2022/10/23 03:20:14;;;;;;;;;;;15.60;72.20;;;;;;5195118;27;19926;-68
2022/10/23 03:22:40;;;;;;;;;;;15.70;72.30;;;;;;5195469;27;19918;-68
2022/10/23 03:25:06;;;;;;;;;;;15.60;72.20;;;;;;5195139;27;19918;-68
2022/10/23 03:27:32;;;;;;;;;;;15.60;72.20;;;;;;5195368;27;19957;-68
2022/10/23 03:29:57;;;;;;;;;;;15.60;72.20;;;;;;5194936;27;19953;-68
2022/10/23 03:32:23;;;;;;;;;;;15.60;72.30;;;;;;5194977;27;19977;-68
2022/10/23 03:34:48;;;;;;;;;;;15.60;72.20;;;;;;5191857;27;19919;-68
2022/10/23 03:37:14;;;;;;;;;;;15.60;72.20;;;;;;5174087;27;20126;-68
2022/10/23 03:39:39;;;;;;;;;;;15.60;72.20;;;;;;5173716;27;19945;-68
2022/10/23 03:42:05;;;;;;;;;;;15.60;72.20;;;;;;5192519;27;20385;-67
2022/10/23 03:44:30;;;;;;;;;;;15.60;72.10;;;;;;5173947;27;19926;-68
2022/10/23 03:46:56;;;;;;;;;;;15.60;72.20;;;;;;5173623;27;20856;-68
2022/10/23 03:49:21;;;;;;;;;;;15.60;72.10;;;;;;5192514;27;19918;-68
2022/10/23 03:51:51;;;;;;;;;;;15.60;72.10;;;;;;5192299;27;20404;-68
2022/10/23 03:54:18;;;;;;;;;;;15.60;72.10;;;;;;5173476;27;19918;-68
2022/10/23 03:56:44;;;;;;;;;;;15.60;72.10;;;;;;5173739;27;20385;-69
2022/10/23 03:59:09;;;;;;;;;;;15.60;72.10;;;;;;5173055;27;20001;-70
2022/10/23 04:01:35;;;;;;;;;;;15.60;72.10;;;;;;5173188;27;19919;-68
2022/10/23 04:04:00;;;;;;;;;;;15.60;72.10;;;;;;5173696;27;19919;-68
2022/10/23 04:06:26;;;;;;;;;;;15.60;72.10;;;;;;5173464;27;20370;-70
2022/10/23 04:08:51;;;;;;;;;;;15.60;72.20;;;;;;5173606;27;20369;-68
2022/10/23 04:11:17;;;;;;;;;;;15.60;72.10;;;;;;5163497;27;20382;-68
2022/10/23 04:13:42;;;;;;;;;;;15.60;72.10;;;;;;5159220;27;19926;-68
2022/10/23 04:16:08;;;;;;;;;;;15.60;72.10;;;;;;5177733;27;19925;-68
2022/10/23 04:18:33;;;;;;;;;;;15.50;72.10;;;;;;5159572;27;19945;-68
2022/10/23 04:20:59;;;;;;;;;;;15.60;72.10;;;;;;5158999;27;19919;-68
2022/10/23 04:23:24;;;;;;;;;;;15.60;72.10;;;;;;5158996;27;19971;-68
2022/10/23 04:25:50;;;;;;;;;;;15.60;72.10;;;;;;5158953;27;19919;-68
2022/10/23 04:28:15;;;;;;;;;;;15.60;72.10;;;;;;5159188;27;19979;-68
2022/10/23 04:30:41;;;;;;;;;;;15.50;72.00;;;;;;5159017;27;20392;-69
2022/10/23 04:33:06;;;;;;;;;;;15.50;72.10;;;;;;5158804;27;19925;-68
2022/10/23 04:35:32;;;;;;;;;;;15.50;72.00;;;;;;5177678;27;19966;-68
2022/10/23 04:37:57;;;;;;;;;;;15.50;72.00;;;;;;5177374;27;19982;-68
2022/10/23 04:40:23;;;;;;;;;;;15.50;72.00;;;;;;5158580;27;19966;-68
2022/10/23 04:42:48;;;;;;;;;;;15.50;72.00;;;;;;5158855;27;19919;-68
2022/10/23 04:45:14;;;;;;;;;;;15.50;72.00;;;;;;5158601;27;19933;-68
2022/10/23 04:47:39;;;;;;;;;;;15.50;72.00;;;;;;5158697;27;19925;-68
2022/10/23 04:50:05;;;;;;;;;;;15.50;72.00;;;;;;5177434;27;20406;-68
2022/10/23 04:52:31;;;;;;;;;;;15.50;72.00;;;;;;5158734;27;20021;-68
2022/10/23 04:54:56;;;;;;;;;;;15.50;72.00;;;;;;5158457;27;20004;-68
2022/10/23 04:57:22;;;;;;;;;;;15.50;72.00;;;;;;5158271;27;19926;-68
2022/10/23 04:59:47;;;;;;;;;;;15.50;72.00;;;;;;5158097;27;19922;-68
2022/10/23 05:02:13;;;;;;;;;;;15.50;72.00;;;;;;5158163;27;19954;-68
2022/10/23 05:04:38;;;;;;;;;;;15.50;72.00;;;;;;5158207;27;19922;-68
2022/10/23 05:07:04;;;;;;;;;;;15.50;72.00;;;;;;5158165;27;19923;-70
2022/10/23 05:09:29;;;;;;;;;;;15.50;72.00;;;;;;5158104;27;19968;-69
2022/10/23 05:11:55;;;;;;;;;;;15.50;72.00;;;;;;5158039;27;20009;-68
2022/10/23 05:14:20;;;;;;;;;;;15.50;72.00;;;;;;5176811;27;19973;-68
2022/10/23 05:16:48;;;;;;;;;;;15.50;71.90;;;;;;5158026;27;20437;-68
2022/10/23 05:19:18;;;;;;;;;;;15.40;71.90;;;;;;5157901;27;20281;-68
2022/10/23 05:21:44;;;;;;;;;;;15.50;72.00;;;;;;5176309;27;19919;-68
2022/10/23 05:24:10;;;;;;;;;;;15.40;71.80;;;;;;5157263;27;20377;-68
2022/10/23 05:26:35;;;;;;;;;;;15.40;71.90;;;;;;5157798;27;19919;-69
2022/10/23 05:29:01;;;;;;;;;;;15.50;71.90;;;;;;5157672;27;19926;-68
2022/10/23 05:31:27;;;;;;;;;;;15.40;71.80;;;;;;5157588;27;19926;-70
2022/10/23 05:33:53;;;;;;;;;;;15.40;71.80;;;;;;5157485;27;19919;-68
2022/10/23 05:36:20;;;;;;;;;;;15.40;71.90;;;;;;5157928;27;19925;-68
2022/10/23 05:38:45;;;;;;;;;;;15.40;72.60;;;;;;5157430;27;19922;-68
2022/10/23 05:41:11;;;;;;;;;;;15.40;71.80;;;;;;5157457;27;19926;-68
2022/10/23 05:43:36;;;;;;;;;;;15.40;71.80;;;;;;5157359;27;19925;-68
2022/10/23 05:46:04;;;;;;;;;;;15.40;71.80;;;;;;5157375;27;20005;-69
2022/10/23 05:48:31;;;;;;;;;;;15.40;71.80;;;;;;5157521;27;19919;-68
2022/10/23 05:51:01;;;;;;;;;;;15.40;71.80;;;;;;5157233;27;20374;-68
2022/10/23 05:53:26;;;;;;;;;;;15.40;71.80;;;;;;5157461;27;19919;-68
2022/10/23 05:55:52;;;;;;;;;;;15.40;71.80;;;;;;5157360;27;19925;-68
2022/10/23 05:58:22;;;;;;;;;;;15.40;71.80;;;;;;5175744;27;19925;-68
2022/10/23 06:00:47;;;;;;;;;;;15.40;71.80;;;;;;5153365;27;19923;-68
2022/10/23 06:03:13;;;;;;;;;;;15.40;71.80;;;;;;5153432;27;19926;-68
2022/10/23 06:05:38;;;;;;;;;;;15.40;71.80;;;;;;5153475;27;19939;-68
2022/10/23 06:08:04;;;;;;;;;;;15.40;71.80;;;;;;5153560;27;20206;-68
2022/10/23 06:10:30;;;;;;;;;;;15.40;71.80;;;;;;5154991;27;19919;-68
2022/10/23 06:12:56;;;;;;;;;;;15.40;71.70;;;;;;5153726;27;19954;-68
2022/10/23 06:15:21;;;;;;;;;;;15.40;71.80;;;;;;5153597;27;20361;-69
2022/10/23 06:17:47;;;;;;;;;;;15.40;71.80;;;;;;5153312;27;20014;-68
2022/10/23 06:20:12;;;;;;;;;;;15.40;71.80;;;;;;5153073;27;20022;-68
2022/10/23 06:22:38;;;;;;;;;;;15.40;71.80;;;;;;5154578;27;19973;-68
2022/10/23 06:25:03;;;;;;;;;;;15.40;71.80;;;;;;5153545;27;19979;-68
2022/10/23 06:27:29;;;;;;;;;;;15.40;71.80;;;;;;5153156;27;20286;-68
2022/10/23 06:29:54;;;;;;;;;;;15.40;71.80;;;;;;5154330;27;19969;-68
2022/10/23 06:32:20;;;;;;;;;;;15.40;71.80;;;;;;5153430;27;20306;-68
2022/10/23 06:34:45;;;;;;;;;;;15.40;71.70;;;;;;5153049;27;19919;-68
2022/10/23 06:37:11;;;;;;;;;;;15.30;71.70;;;;;;5153098;27;19919;-70
2022/10/23 06:39:39;;;;;;;;;;;15.30;71.70;;;;;;5152928;27;19923;-68
2022/10/23 06:42:04;;;;;;;;;;;15.30;71.70;;;;;;5153228;27;19923;-68
2022/10/23 06:44:30;;;;;;;;;;;15.20;71.70;;;;;;5152956;27;20321;-68
2022/10/23 06:46:55;;;;;;;;;;;15.30;71.70;;;;;;5152837;27;19919;-68
2022/10/23 06:49:21;;;;;;;;;;;15.30;71.70;;;;;;5154119;27;19926;-70
2022/10/23 06:51:46;;;;;;;;;;;15.30;71.70;;;;;;5154056;27;19930;-68
2022/10/23 06:54:12;;;;;;;;;;;15.30;71.70;;;;;;5154236;27;20163;-68
2022/10/23 06:56:37;;;;;;;;;;;15.30;71.80;;;;;;5154209;27;20262;-68
2022/10/23 06:59:06;;;;;;;;;;;15.30;71.70;;;;;;5158597;27;20392;-68
2022/10/23 07:01:32;;;;;;;;;;;15.30;71.70;;;;;;5174974;27;20013;-68
2022/10/23 07:03:57;;;;;;;;;;;15.30;71.70;;;;;;5156517;27;20457;-70
2022/10/23 07:06:23;;;;;;;;;;;15.30;71.70;;;;;;5156270;27;20283;-68
2022/10/23 07:08:48;;;;;;;;;;;15.30;71.70;;;;;;5156182;27;19919;-68
2022/10/23 07:11:14;;;;;;;;;;;15.30;71.70;;;;;;5174684;27;19919;-68
2022/10/23 07:13:39;;;;;;;;;;;15.30;71.60;;;;;;5174885;27;19997;-69
2022/10/23 07:16:14;;;;;;;;;;;15.30;71.70;;;;;;5156240;27;20394;-68
2022/10/23 07:18:39;;;;;;;;;;;15.30;71.60;;;;;;5155921;27;20005;-68
2022/10/23 07:21:05;;;;;;;;;;;15.30;71.60;;;;;;5174530;27;20005;-68
2022/10/23 07:23:31;;;;;;;;;;;15.30;71.60;;;;;;5155990;27;19919;-68
2022/10/23 07:26:01;;;;;;;;;;;15.30;71.60;;;;;;5155990;27;20173;-68
2022/10/23 07:28:27;;;;;;;;;;;15.30;71.60;;;;;;5174445;27;19919;-68
2022/10/23 07:30:56;;;;;;;;;;;15.30;71.60;;;;;;5156141;27;19925;-68
2022/10/23 07:33:22;;;;;;;;;;;15.30;71.70;;;;;;5155577;27;19919;-70
2022/10/23 07:35:48;;;;;;;;;;;15.30;71.60;;;;;;5155376;27;19925;-69
2022/10/23 07:38:14;;;;;;;;;;;15.30;71.60;;;;;;5155731;27;20382;-69
2022/10/23 07:40:40;;;;;;;;;;;15.30;71.60;;;;;;5156031;27;20021;-69
2022/10/23 07:43:05;;;;;;;;;;;15.30;71.60;;;;;;5156009;27;19961;-69
2022/10/23 07:45:31;;;;;;;;;;;15.30;71.60;;;;;;5156779;27;19919;-68
2022/10/23 07:47:56;;;;;;;;;;;15.30;71.60;;;;;;5159648;27;19919;-70
2022/10/23 07:50:22;;;;;;;;;;;15.30;71.60;;;;;;5159913;27;19918;-68
2022/10/23 07:52:47;;;;;;;;;;;15.30;71.60;;;;;;5159847;27;19926;-68
2022/10/23 07:55:13;;;;;;;;;;;15.30;71.60;;;;;;5159821;27;19919;-69
2022/10/23 07:57:38;;;;;;;;;;;15.30;71.70;;;;;;5159496;27;19919;-68
2022/10/23 08:00:05;;;;;;;;;;;15.30;71.60;;;;;;5155533;27;19924;-68
2022/10/23 08:02:30;;;;;;;;;;;15.30;71.60;;;;;;5156220;27;20350;-69
2022/10/23 08:04:56;;;;;;;;;;;15.30;71.60;;;;;;5156171;27;19977;-68
2022/10/23 08:07:21;;;;;;;;;;;15.30;71.60;;;;;;5155859;27;19923;-68
2022/10/23 08:09:47;;;;;;;;;;;15.40;71.70;;;;;;5155755;27;20010;-68
2022/10/23 08:12:13;;;;;;;;;;;15.30;71.60;;;;;;5156104;27;19970;-69
2022/10/23 08:14:38;;;;;;;;;;;15.30;71.60;;;;;;5155668;27;20390;-69
2022/10/23 08:17:04;;;;;;;;;;;15.30;71.70;;;;;;5155692;27;19919;-68
2022/10/23 08:19:29;;;;;;;;;;;15.30;71.70;;;;;;5156776;27;20123;-68
2022/10/23 08:21:56;;;;;;;;;;;15.30;71.70;;;;;;5155564;27;20058;-70
2022/10/23 08:24:22;;;;;;;;;;;15.30;71.70;;;;;;5155797;27;20055;-68
2022/10/23 08:26:48;;;;;;;;;;;15.30;71.70;;;;;;5155483;27;20459;-69
2022/10/23 08:29:13;;;;;;;;;;;15.30;71.60;;;;;;5155721;27;19926;-69
2022/10/23 08:31:39;;;;;;;;;;;15.30;71.60;;;;;;5155582;27;19923;-68
2022/10/23 08:34:04;;;;;;;;;;;15.40;71.70;;;;;;5156680;27;19923;-68
2022/10/23 08:36:30;;;;;;;;;;;15.30;71.70;;;;;;5155299;27;19919;-68
2022/10/23 08:38:56;;;;;;;;;;;15.30;72.40;;;;;;5156654;27;19930;-68
2022/10/23 08:41:26;;;;;;;;;;;15.40;71.70;;;;;;5156516;27;20001;-68
2022/10/23 08:43:56;;;;;;;;;;;15.30;71.70;;;;;;5155414;27;20009;-68
2022/10/23 08:46:24;;;;;;;;;;;15.40;71.70;;;;;;5155160;27;19968;-68
2022/10/23 08:48:52;;;;;;;;;;;15.30;71.60;;;;;;5156416;27;19919;-68
2022/10/23 08:51:24;;;;;;;;;;;15.40;71.70;;;;;;5154905;27;20002;-68
2022/10/23 08:56:33;;;;;;;;;;;15.40;71.70;;;;;;5163930;27;19912;-68
2022/10/23 08:59:04;;;;;;;;;;;15.30;71.60;;;;;;5130827;27;19966;-68
2022/10/23 09:01:34;;;;;;;;;;;15.40;71.70;;;;;;5130687;27;20290;-68
2022/10/23 09:04:01;;;;;;;;;;;15.40;71.60;;;;;;5129637;28;19968;-68
2022/10/23 09:06:32;;;;;;;;;;;15.40;71.70;;;;;;5129571;28;20320;-68
2022/10/23 09:09:03;;;;;;;;;;;15.40;71.70;;;;;;5129314;28;19920;-68
2022/10/23 09:11:42;;;;;;;;;;;15.40;71.70;;;;;;5129201;28;19920;-68
2022/10/23 09:14:28;;;;;;;;;;;15.40;71.70;;;;;;5129455;28;19972;-68
2022/10/23 09:19:33;;;;;;;;;;;15.40;71.70;;;;;;5122639;27;19913;-68
2022/10/23 09:21:58;;;;;;;;;;;15.40;71.80;;;;;;5088553;28;19928;-67
2022/10/23 09:24:25;;;;;;;;;;;15.40;71.70;;;;;;5088913;28;19943;-68
2022/10/23 09:26:51;;;;;;;;;;;15.30;71.70;;;;;;5122534;28;19966;-68
2022/10/23 09:32:04;;;;;;;;;;;15.40;71.90;;;;;;5122864;27;19913;-68
2022/10/23 09:34:31;;;;;;;;;;;15.40;71.80;;;;;;5088926;28;20061;-68
2022/10/23 09:37:01;;;;;;;;;;;15.40;72.60;;;;;;5088517;28;19931;-68
2022/10/23 09:39:29;;;;;;;;;;;15.40;71.80;;;;;;5088486;28;20364;-67
2022/10/23 09:41:55;;;;;;;;;;;15.40;71.90;;;;;;5088751;28;19932;-68
2022/10/23 09:44:22;;;;;;;;;;;15.40;71.80;;;;;;5088450;28;19924;-68
2022/10/23 09:49:33;;;;;;;;;;;15.40;71.90;;;;;;5122710;27;19912;-68
2022/10/23 09:54:44;;;;;;;;;;;15.40;71.90;;;;;;5166286;27;795770;-68
2022/10/23 09:59:53;;;;;;;;;;;15.40;71.80;;;;;;5168815;27;803187;-67
2022/10/23 10:02:26;;;;;;;;;;;15.40;71.80;;;;;;5192756;27;20013;-67
2022/10/23 10:04:51;;;;;;;;;;;15.50;71.90;;;;;;5195637;27;19986;-70
2022/10/23 10:07:19;;;;;;;;;;;15.40;71.90;;;;;;5214627;27;19922;-68
2022/10/23 10:09:44;;;;;;;;;;;15.50;71.90;;;;;;5195432;27;20456;-67
2022/10/23 10:17:36;;;;;;;;;;;15.40;71.90;;;;;;5101966;27;19913;-68
2022/10/23 10:25:28;;;;;;;;;;;15.50;72.10;;;;;;5166595;27;792717;-67
2022/10/23 10:28:01;;;;;;;;;;;15.40;72.00;;;;;;5195380;27;19922;-67
2022/10/23 10:30:33;;;;;;;;;;;15.50;72.20;;;;;;5195740;27;19998;-68
2022/10/23 10:38:39;;;;;;;;;;;15.50;72.30;;;;;;5165909;27;824944;-70
2022/10/23 10:41:24;;;;;;;;;;;15.60;72.40;;;;;;5195451;27;20384;-70
2022/10/23 10:46:37;;;;;;;;;;;15.50;72.30;;;;;;5126085;27;20390;-67
2022/10/23 10:49:10;;;;;;;;;;;15.50;72.30;;;;;;5108879;28;20392;-68
2022/10/23 10:51:47;;;;;;;;;;;15.60;72.50;;;;;;5109176;28;19920;-67
2022/10/23 10:54:24;;;;;;;;;;;15.50;72.50;;;;;;5108793;28;19924;-67
2022/10/23 10:56:50;;;;;;;;;;;15.60;72.70;;;;;;5109186;28;19926;-68
2022/10/23 10:59:25;;;;;;;;;;;15.50;72.60;;;;;;5109211;28;20271;-67
2022/10/23 11:02:11;;;;;;;;;;;15.50;72.60;;;;;;5110107;28;20362;-67
2022/10/23 11:04:43;;;;;;;;;;;15.50;72.60;;;;;;5108378;28;19924;-68
2022/10/23 11:07:12;;;;;;;;;;;15.50;72.60;;;;;;5108662;28;20383;-67
2022/10/23 11:09:37;;;;;;;;;;;15.60;72.80;;;;;;5108828;28;19920;-68
2022/10/23 11:12:03;;;;;;;;;;;15.50;72.70;;;;;;5125931;28;20377;-67
2022/10/23 11:14:31;;;;;;;;;;;15.60;72.70;;;;;;5108448;28;20010;-67
2022/10/23 11:25:46;;;;;;;;;;;15.60;72.90;;;;;;5166267;27;795457;-67
2022/10/23 11:33:56;;;;;;;;;;;15.60;72.90;;;;;;5121834;27;20276;-67
2022/10/23 11:36:41;;;;;;;;;;;15.60;73.00;;;;;;5088263;28;20003;-68
2022/10/23 11:39:28;;;;;;;;;;;15.60;73.00;;;;;;5088382;28;20368;-67
2022/10/23 11:41:55;;;;;;;;;;;15.60;73.00;;;;;;5088607;28;19943;-68
2022/10/23 11:44:40;;;;;;;;;;;15.60;73.10;;;;;;5088838;28;19920;-67
2022/10/23 11:47:26;;;;;;;;;;;15.60;73.10;;;;;;5088259;28;19920;-67
2022/10/23 11:53:05;;;;;;;;;;;15.60;73.30;;;;;;5122932;27;19913;-67
2022/10/23 11:55:31;;;;;;;;;;;15.60;73.30;;;;;;5088842;28;20185;-70
2022/10/23 11:58:17;;;;;;;;;;;15.60;73.30;;;;;;5088929;28;20562;-67
2022/10/23 12:00:59;;;;;;;;;;;15.60;73.30;;;;;;5088570;28;19920;-67
2022/10/23 12:03:28;;;;;;;;;;;15.60;73.40;;;;;;5088797;28;20254;-70
2022/10/23 12:05:59;;;;;;;;;;;15.60;73.50;;;;;;5088340;28;19928;-70
2022/10/23 12:08:26;;;;;;;;;;;15.60;73.30;;;;;;5088417;28;19920;-69
2022/10/23 12:10:52;;;;;;;;;;;15.60;73.30;;;;;;5088383;28;19925;-67
2022/10/23 12:13:37;;;;;;;;;;;15.60;73.30;;;;;;5088622;28;19927;-69
2022/10/23 12:16:03;;;;;;;;;;;15.60;73.30;;;;;;5087975;28;20387;-67
2022/10/23 12:18:29;;;;;;;;;;;15.60;73.20;;;;;;5088045;28;19931;-67
2022/10/23 12:21:03;;;;;;;;;;;15.60;73.20;;;;;;5088128;28;19921;-67
2022/10/23 12:23:48;;;;;;;;;;;15.60;73.30;;;;;;5088019;28;19943;-67
2022/10/23 12:28:58;;;;;;;;;;;15.60;73.30;;;;;;5165145;27;830517;-67
2022/10/23 12:31:36;;;;;;;;;;;15.60;73.40;;;;;;5195270;27;19918;-67
2022/10/23 12:34:15;;;;;;;;;;;15.60;73.50;;;;;;5195734;27;19988;-67
2022/10/23 12:39:28;;;;;;;;;;;15.60;73.40;;;;;;5122621;27;19912;-67
2022/10/23 12:41:53;;;;;;;;;;;15.60;73.40;;;;;;5088620;28;20388;-67
2022/10/23 12:44:20;;;;;;;;;;;15.70;73.50;;;;;;5088982;28;20035;-67
2022/10/23 12:46:47;;;;;;;;;;;15.70;73.60;;;;;;5088949;28;20273;-67
2022/10/23 12:49:21;;;;;;;;;;;15.60;73.40;;;;;;5088778;28;20435;-67
2022/10/23 12:52:03;;;;;;;;;;;15.70;73.50;;;;;;5088657;28;20372;-70
2022/10/23 12:54:30;;;;;;;;;;;15.70;73.60;;;;;;5088431;28;19964;-67
2022/10/23 12:56:55;;;;;;;;;;;15.60;73.60;;;;;;5088602;28;19928;-67
2022/10/23 12:59:25;;;;;;;;;;;15.70;73.70;;;;;;5122278;27;19920;-67
2022/10/23 13:01:51;;;;;;;;;;;15.70;73.60;;;;;;5089832;28;19927;-67
2022/10/23 13:06:57;;;;;;;;;;;15.70;73.60;;;;;;5122583;27;19912;-67
2022/10/23 13:12:03;;;;;;;;;;;15.70;73.60;;;;;;5122810;27;19913;-67
2022/10/23 13:14:30;;;;;;;;;;;15.80;73.60;;;;;;5088851;28;19921;-67
2022/10/23 13:16:58;;;;;;;;;;;15.80;73.60;;;;;;5088432;28;20004;-70
2022/10/23 13:19:25;;;;;;;;;;;15.70;73.50;;;;;;5088747;28;20036;-67
2022/10/23 13:21:51;;;;;;;;;;;15.70;73.50;;;;;;5088749;28;19948;-67
2022/10/23 13:24:18;;;;;;;;;;;15.70;73.50;;;;;;5088272;28;19978;-67
2022/10/23 13:26:44;;;;;;;;;;;15.70;73.50;;;;;;5088724;28;20283;-66
2022/10/23 13:29:29;;;;;;;;;;;15.70;73.50;;;;;;5088598;28;19920;-67
2022/10/23 13:31:55;;;;;;;;;;;15.70;73.60;;;;;;5088249;28;19932;-67
2022/10/23 13:37:21;;;;;;;;;;;15.70;73.70;;;;;;5122701;27;19913;-70
2022/10/23 13:39:57;;;;;;;;;;;15.70;73.80;;;;;;5088780;28;19928;-67
2022/10/23 13:42:22;;;;;;;;;;;15.70;73.80;;;;;;5088827;28;19928;-70
2022/10/23 13:44:48;;;;;;;;;;;15.70;73.80;;;;;;5122912;28;20287;-70
2022/10/23 13:47:14;;;;;;;;;;;15.70;73.80;;;;;;5089021;28;19927;-67
2022/10/23 13:49:40;;;;;;;;;;;15.70;73.80;;;;;;5088373;28;19924;-67
2022/10/23 13:52:08;;;;;;;;;;;15.70;73.80;;;;;;5088952;28;20027;-67
2022/10/23 13:54:33;;;;;;;;;;;15.70;73.80;;;;;;5088204;28;19921;-67
2022/10/23 13:56:59;;;;;;;;;;;15.70;73.80;;;;;;5088230;28;19927;-67
2022/10/23 13:59:24;;;;;;;;;;;15.70;73.90;;;;;;5089337;28;19920;-67
2022/10/23 14:01:50;;;;;;;;;;;15.70;73.80;;;;;;5088287;28;20015;-67
2022/10/23 14:04:16;;;;;;;;;;;15.70;73.80;;;;;;5089266;28;19931;-67
2022/10/23 14:06:42;;;;;;;;;;;15.70;73.80;;;;;;5088134;28;19928;-67
2022/10/23 14:09:11;;;;;;;;;;;15.80;73.90;;;;;;5089349;28;19920;-67
2022/10/23 14:11:36;;;;;;;;;;;15.80;74.00;;;;;;5088019;28;19926;-67
2022/10/23 14:14:02;;;;;;;;;;;15.70;74.00;;;;;;5089391;28;20015;-67
2022/10/23 14:16:27;;;;;;;;;;;15.80;74.10;;;;;;5087718;28;19925;-67
2022/10/23 14:18:53;;;;;;;;;;;15.80;74.10;;;;;;5087856;28;19969;-67
2022/10/23 14:21:19;;;;;;;;;;;15.80;73.90;;;;;;5089080;28;20073;-67
2022/10/23 14:23:45;;;;;;;;;;;15.80;73.90;;;;;;5088103;28;19921;-67
2022/10/23 14:26:12;;;;;;;;;;;15.80;74.00;;;;;;5088985;28;19921;-67
2022/10/23 14:28:38;;;;;;;;;;;15.80;73.90;;;;;;5089079;28;19928;-67
2022/10/23 14:31:04;;;;;;;;;;;15.80;74.00;;;;;;5087628;28;19920;-67
2022/10/23 14:33:30;;;;;;;;;;;15.80;74.00;;;;;;5087603;28;19927;-67
2022/10/23 14:35:55;;;;;;;;;;;15.80;74.00;;;;;;5087102;28;19928;-67
2022/10/23 14:38:21;;;;;;;;;;;15.80;74.80;;;;;;5087559;28;19921;-68
2022/10/23 14:40:47;;;;;;;;;;;15.80;74.20;;;;;;5087706;28;19920;-67
2022/10/23 14:43:12;;;;;;;;;;;15.80;74.20;;;;;;5088718;28;20443;-67
2022/10/23 14:45:38;;;;;;;;;;;15.80;74.30;;;;;;5087665;28;19920;-67
2022/10/23 14:48:03;;;;;;;;;;;15.80;74.30;;;;;;5076930;28;20295;-67
2022/10/23 14:50:30;;;;;;;;;;;15.90;74.30;;;;;;5073793;28;19920;-67
2022/10/23 14:52:56;;;;;;;;;;;15.80;74.30;;;;;;5073943;28;19921;-67
2022/10/23 14:55:21;;;;;;;;;;;15.80;74.30;;;;;;5073871;28;19925;-67
2022/10/23 14:57:47;;;;;;;;;;;15.80;74.30;;;;;;5074887;28;19920;-67
2022/10/23 15:00:13;;;;;;;;;;;15.80;74.30;;;;;;5107882;28;20364;-67
2022/10/23 15:02:39;;;;;;;;;;;15.80;74.40;;;;;;5107682;28;20481;-67
2022/10/23 15:05:04;;;;;;;;;;;15.80;74.30;;;;;;5107389;28;19967;-67
2022/10/23 15:07:30;;;;;;;;;;;15.80;74.30;;;;;;5073711;28;19978;-67
2022/10/23 15:09:56;;;;;;;;;;;15.80;74.40;;;;;;5074714;28;19975;-67
2022/10/23 15:12:22;;;;;;;;;;;15.80;74.40;;;;;;5074577;28;20341;-67
2022/10/23 15:14:47;;;;;;;;;;;15.80;74.30;;;;;;5107155;28;19921;-67
2022/10/23 15:17:13;;;;;;;;;;;15.80;74.40;;;;;;5073265;28;19920;-67
2022/10/23 15:19:38;;;;;;;;;;;15.80;74.40;;;;;;5074447;28;19974;-67
2022/10/23 15:22:04;;;;;;;;;;;15.80;74.50;;;;;;5073443;28;19960;-67
2022/10/23 15:24:29;;;;;;;;;;;15.80;74.40;;;;;;5074439;28;20003;-67
2022/10/23 15:26:55;;;;;;;;;;;15.80;74.50;;;;;;5074382;28;19931;-67
2022/10/23 15:29:21;;;;;;;;;;;15.80;74.50;;;;;;5107296;28;19921;-67
2022/10/23 15:31:50;;;;;;;;;;;15.90;74.50;;;;;;5073635;28;20304;-67
2022/10/23 15:34:21;;;;;;;;;;;15.90;74.50;;;;;;5072959;28;19924;-67
2022/10/23 15:36:47;;;;;;;;;;;15.80;74.40;;;;;;5072677;28;19925;-67
2022/10/23 15:39:14;;;;;;;;;;;15.90;74.50;;;;;;5074294;28;19976;-67
2022/10/23 15:41:41;;;;;;;;;;;15.90;74.50;;;;;;5072822;28;19924;-72
2022/10/23 15:44:07;;;;;;;;;;;15.90;74.50;;;;;;5074002;28;19921;-69
2022/10/23 15:46:33;;;;;;;;;;;15.90;74.50;;;;;;5072768;28;19928;-69
2022/10/23 15:48:59;;;;;;;;;;;15.90;74.60;;;;;;5072962;28;19921;-69
2022/10/23 15:51:24;;;;;;;;;;;15.90;74.60;;;;;;5073158;28;19920;-69
2022/10/23 15:53:50;;;;;;;;;;;15.90;74.50;;;;;;5072543;28;20383;-71
2022/10/23 15:56:15;;;;;;;;;;;15.90;74.40;;;;;;5073725;28;19932;-72